Time;durP1;ratioP1;P1;durP2;ratioP2;P2;SDS_P1;SDS_P2;PMS_P1;PMS_P2;Temp;Humidity;BMP_temperature;BMP_pressure;BME280_temperature;BME280_humidity;BME280_pressure;Samples;Min_cycle;Max_cycle;Signal;HPM_P1;HPM_P2
2023/07/29 00:01:13;;;;;;;;;;;;;;;25.18;63.60;99944.50;5384804;32;34280;-87
2023/07/29 00:04:16;;;;;;;;;;;;;;;25.41;62.38;99942.03;5384675;32;35134;-87
2023/07/29 00:07:18;;;;;;;;;;;;;;;25.22;63.36;99945.03;5380846;32;35395;-87
2023/07/29 00:10:20;;;;;;;;;;;;;;;25.11;63.37;99944.31;5383913;32;35005;-87
2023/07/29 00:13:21;;;;;;;;;;;;;;;24.78;64.69;99935.28;5389013;32;35922;-87
2023/07/29 00:16:24;;;;;;;;;;;;;;;24.33;67.19;99943.59;5387015;32;34334;-87
2023/07/29 00:19:26;;;;;;;;;;;;;;;24.10;68.97;99939.78;5390133;32;34866;-88
2023/07/29 00:22:28;;;;;;;;;;;;;;;24.39;67.18;99932.25;5384068;32;35281;-87
2023/07/29 00:25:30;;;;;;;;;;;;;;;24.72;65.75;99938.59;5387550;32;34813;-87
2023/07/29 00:28:32;;;;;;;;;;;;;;;25.03;64.22;99946.13;5385286;32;34644;-87
2023/07/29 00:31:34;;;;;;;;;;;;;;;24.97;64.15;99936.00;5382330;32;35144;-87
2023/07/29 00:34:36;;;;;;;;;;;;;;;25.21;62.65;99933.44;5387662;32;35005;-86
2023/07/29 00:37:39;;;;;;;;;;;;;;;25.01;63.02;99938.22;5385205;32;35586;-87
2023/07/29 00:40:41;;;;;;;;;;;;;;;24.62;64.15;99929.00;5388844;32;35218;-87
2023/07/29 00:43:43;;;;;;;;;;;;;;;24.59;64.64;99938.22;5386462;32;35853;-87
2023/07/29 00:46:45;;;;;;;;;;;;;;;23.75;69.00;99946.88;5390665;32;34384;-86
2023/07/29 00:49:49;;;;;;;;;;;;;;;24.51;65.87;99938.19;5388680;32;34592;-86
2023/07/29 00:52:51;;;;;;;;;;;;;;;24.79;64.49;99928.88;5382735;32;34682;-86
2023/07/29 00:55:53;;;;;;;;;;;;;;;24.20;66.76;99937.81;5388681;32;35932;-87
2023/07/29 00:58:58;;;;;;;;;;;;;;;23.42;69.19;99940.34;5386884;32;36550;-87
2023/07/29 01:02:00;;;;;;;;;;;;;;;23.39;68.37;99935.31;5393164;32;35925;-87
2023/07/29 01:05:03;;;;;;;;;;;;;;;22.90;70.54;99942.81;5386103;32;35609;-87
2023/07/29 01:08:34;;;;;;;;;;;;;;;23.11;68.64;99932.66;5389839;32;34913;-88
2023/07/29 01:11:55;;;;;;;;;;;;;;;23.14;67.63;99937.75;5388699;32;34234;-87
2023/07/29 01:15:17;;;;;;;;;;;;;;;23.16;67.29;99932.22;5383725;32;35344;-87
2023/07/29 01:18:31;;;;;;;;;;;;;;;23.39;65.79;99938.00;5390460;32;35268;-87
2023/07/29 01:21:34;;;;;;;;;;;;;;;23.74;64.91;99929.09;5388986;32;35735;-88
2023/07/29 01:24:36;;;;;;;;;;;;;;;23.94;63.29;99924.37;5387919;32;34395;-86
2023/07/29 01:27:38;;;;;;;;;;;;;;;23.11;66.35;99931.81;5390406;32;34921;-86
2023/07/29 01:30:40;;;;;;;;;;;;;;;23.90;63.75;99936.44;5385170;32;34384;-87
2023/07/29 01:33:44;;;;;;;;;;;;;;;24.19;62.44;99928.06;5388831;32;34788;-87
2023/07/29 01:36:46;;;;;;;;;;;;;;;24.07;62.62;99930.16;5396202;32;34736;-86
2023/07/29 01:39:49;;;;;;;;;;;;;;;23.28;65.38;99939.06;5387569;32;35440;-87
2023/07/29 01:42:51;;;;;;;;;;;;;;;22.50;68.41;99941.28;5387109;32;35042;-87
2023/07/29 01:45:53;;;;;;;;;;;;;;;22.88;67.96;99942.97;5382252;32;35318;-86
2023/07/29 01:48:55;;;;;;;;;;;;;;;22.64;69.30;99938.13;5383052;32;34277;-86
2023/07/29 01:51:57;;;;;;;;;;;;;;;23.06;68.05;99937.66;5380391;32;35972;-86
2023/07/29 01:54:59;;;;;;;;;;;;;;;23.54;65.23;99944.50;5386149;32;34037;-86
2023/07/29 01:58:01;;;;;;;;;;;;;;;22.95;67.35;99941.38;5383393;32;34266;-86
2023/07/29 02:01:04;;;;;;;;;;;;;;;22.63;68.86;99935.59;5379962;32;34483;-87
2023/07/29 02:04:05;;;;;;;;;;;;;;;22.92;68.04;99930.09;5389682;32;33144;-87
2023/07/29 02:07:07;;;;;;;;;;;;;;;22.83;67.92;99937.19;5385268;32;34579;-87
2023/07/29 02:10:12;;;;;;;;;;;;;;;22.38;69.71;99935.28;5387355;32;34910;-86
2023/07/29 02:13:14;;;;;;;;;;;;;;;21.94;71.14;99943.94;5385840;32;34985;-87
2023/07/29 02:16:16;;;;;;;;;;;;;;;22.61;67.62;99945.63;5387640;32;34723;-87
2023/07/29 02:19:18;;;;;;;;;;;;;;;22.62;67.74;99950.84;5384337;32;36207;-87
2023/07/29 02:22:20;;;;;;;;;;;;;;;22.13;69.64;99939.44;5381914;32;34237;-86
2023/07/29 02:25:22;;;;;;;;;;;;;;;21.98;69.33;99930.16;5385310;32;34512;-86
2023/07/29 02:28:24;;;;;;;;;;;;;;;22.60;67.60;99935.88;5381616;32;34403;-87
2023/07/29 02:31:28;;;;;;;;;;;;;;;22.86;66.80;99939.63;5382292;32;34629;-86
2023/07/29 02:34:31;;;;;;;;;;;;;;;22.91;65.59;99955.22;5376037;32;34972;-86
2023/07/29 02:37:33;;;;;;;;;;;;;;;22.65;66.56;99955.87;5380439;32;36086;-87
2023/07/29 02:40:34;;;;;;;;;;;;;;;22.27;69.16;99953.34;5384782;32;36083;-85
2023/07/29 02:43:37;;;;;;;;;;;;;;;22.50;68.30;99943.13;5378071;32;35194;-85
2023/07/29 02:46:39;;;;;;;;;;;;;;;22.38;68.10;99934.44;5388561;32;34218;-85
2023/07/29 02:49:41;;;;;;;;;;;;;;;23.15;64.77;99946.63;5385068;32;34513;-86
2023/07/29 02:52:43;;;;;;;;;;;;;;;23.29;64.24;99947.94;5389051;32;34590;-87
2023/07/29 02:55:45;;;;;;;;;;;;;;;23.29;63.77;99953.28;5380928;32;35650;-86
2023/07/29 02:58:47;;;;;;;;;;;;;;;23.34;63.35;99951.84;5379475;32;35848;-86
2023/07/29 03:01:49;;;;;;;;;;;;;;;23.27;64.04;99956.13;5380118;32;34518;-86
2023/07/29 03:04:51;;;;;;;;;;;;;;;22.76;65.83;99954.84;5380680;32;35293;-86
2023/07/29 03:07:53;;;;;;;;;;;;;;;23.15;64.76;99955.50;5388877;32;34675;-87
2023/07/29 03:10:58;;;;;;;;;;;;;;;23.07;64.92;99949.22;5379474;32;34655;-86
2023/07/29 03:14:00;;;;;;;;;;;;;;;23.00;65.38;99953.50;5384807;32;35318;-86
2023/07/29 03:17:04;;;;;;;;;;;;;;;23.09;65.12;99953.44;5380859;32;34721;-86
2023/07/29 03:20:06;;;;;;;;;;;;;;;22.88;66.01;99955.53;5388920;32;35540;-87
2023/07/29 03:23:08;;;;;;;;;;;;;;;22.84;66.42;99949.59;5383871;32;34191;-86
2023/07/29 03:26:11;;;;;;;;;;;;;;;23.00;65.79;99958.88;5380219;32;36764;-86
2023/07/29 03:29:13;;;;;;;;;;;;;;;23.01;65.76;99952.50;5384907;32;34941;-86
2023/07/29 03:32:15;;;;;;;;;;;;;;;22.28;68.95;99957.69;5377758;32;34783;-86
2023/07/29 03:35:16;;;;;;;;;;;;;;;22.07;70.75;99961.38;5382466;32;34154;-87
2023/07/29 03:38:19;;;;;;;;;;;;;;;22.06;70.67;99959.69;5386316;32;35335;-87
2023/07/29 03:41:21;;;;;;;;;;;;;;;22.60;68.17;99955.47;5382032;32;34858;-87
2023/07/29 03:44:23;;;;;;;;;;;;;;;22.44;70.24;99955.28;5388973;32;37282;-87
2023/07/29 03:47:24;;;;;;;;;;;;;;;22.47;70.01;99944.25;5384045;32;36432;-86
2023/07/29 03:50:28;;;;;;;;;;;;;;;21.89;72.80;99955.91;5389000;32;34750;-86
2023/07/29 03:53:30;;;;;;;;;;;;;;;22.46;70.10;99947.09;5384506;32;34460;-86
2023/07/29 03:56:32;;;;;;;;;;;;;;;22.57;69.17;99950.41;5388387;32;35407;-86
2023/07/29 03:59:34;;;;;;;;;;;;;;;22.45;69.60;99951.59;5395955;32;35031;-86
2023/07/29 04:02:37;;;;;;;;;;;;;;;22.34;70.44;99957.97;5390649;32;34664;-85
2023/07/29 04:05:39;;;;;;;;;;;;;;;22.39;70.35;99965.56;5394470;32;34856;-86
2023/07/29 04:08:41;;;;;;;;;;;;;;;22.06;70.31;99970.41;5383804;32;34510;-86
2023/07/29 04:11:43;;;;;;;;;;;;;;;21.70;72.05;99979.16;5386689;32;35960;-86
2023/07/29 04:14:45;;;;;;;;;;;;;;;21.77;71.29;99969.63;5381053;32;36610;-87
2023/07/29 04:17:47;;;;;;;;;;;;;;;21.97;68.86;99971.28;5379742;32;34306;-86
2023/07/29 04:20:49;;;;;;;;;;;;;;;22.21;67.80;99968.16;5384766;32;35606;-86
2023/07/29 04:23:51;;;;;;;;;;;;;;;22.08;68.25;99963.06;5381415;32;34894;-86
2023/07/29 04:26:53;;;;;;;;;;;;;;;22.51;66.33;99964.41;5379328;32;34820;-86
2023/07/29 04:29:55;;;;;;;;;;;;;;;22.69;64.98;99970.69;5388218;32;34709;-86
2023/07/29 04:32:57;;;;;;;;;;;;;;;22.57;65.46;99971.00;5387557;32;34481;-86
2023/07/29 04:35:59;;;;;;;;;;;;;;;22.33;66.56;99968.81;5381976;32;35248;-87
2023/07/29 04:39:01;;;;;;;;;;;;;;;22.60;65.87;99968.88;5388533;32;34347;-87
2023/07/29 04:42:03;;;;;;;;;;;;;;;23.54;62.15;99971.31;5386815;32;34667;-87
2023/07/29 04:45:05;;;;;;;;;;;;;;;23.76;60.38;99972.72;5388464;32;35913;-86
2023/07/29 04:48:07;;;;;;;;;;;;;;;24.01;59.12;99963.00;5383782;32;34528;-86
2023/07/29 04:51:09;;;;;;;;;;;;;;;23.93;58.88;99976.38;5383478;32;34671;-85
2023/07/29 04:54:11;;;;;;;;;;;;;;;23.35;61.43;99974.97;5387081;32;34679;-87
2023/07/29 04:57:13;;;;;;;;;;;;;;;23.94;59.50;99964.63;5381611;32;35689;-86
2023/07/29 05:00:15;;;;;;;;;;;;;;;23.51;60.78;99964.44;5391270;32;34428;-87
2023/07/29 05:03:17;;;;;;;;;;;;;;;23.87;60.56;99971.63;5379017;32;35061;-86
2023/07/29 05:06:20;;;;;;;;;;;;;;;24.35;57.92;99957.75;5389410;32;34708;-86
2023/07/29 05:09:21;;;;;;;;;;;;;;;25.00;56.20;99962.59;5388641;32;35294;-86
2023/07/29 05:12:23;;;;;;;;;;;;;;;25.35;55.00;99962.34;5386590;32;34781;-86
2023/07/29 05:15:25;;;;;;;;;;;;;;;25.43;54.80;99969.59;5390739;32;35327;-87
2023/07/29 05:18:27;;;;;;;;;;;;;;;26.11;52.64;99971.16;5383521;32;34731;-86
2023/07/29 05:21:29;;;;;;;;;;;;;;;26.61;51.86;99979.00;5391657;32;35205;-87
2023/07/29 05:24:31;;;;;;;;;;;;;;;26.50;51.66;99974.00;5386672;32;34911;-87
2023/07/29 05:27:33;;;;;;;;;;;;;;;28.55;46.28;99961.66;5385822;32;35349;-86
2023/07/29 05:30:37;;;;;;;;;;;;;;;27.86;47.17;99973.62;5387056;32;34820;-86
2023/07/29 05:33:39;;;;;;;;;;;;;;;27.30;48.70;99975.69;5383934;32;34230;-85
2023/07/29 05:36:41;;;;;;;;;;;;;;;26.44;51.00;99985.44;5386753;32;34917;-86
2023/07/29 05:39:43;;;;;;;;;;;;;;;28.96;44.53;99979.28;5381469;32;34274;-86
2023/07/29 05:42:45;;;;;;;;;;;;;;;28.57;45.08;99981.22;5389093;32;34689;-86
2023/07/29 05:45:47;;;;;;;;;;;;;;;29.85;41.83;99974.44;5386007;32;34648;-86
2023/07/29 05:48:49;;;;;;;;;;;;;;;28.58;44.54;99995.59;5389387;32;34923;-86
2023/07/29 05:51:53;;;;;;;;;;;;;;;27.54;47.20;99997.97;5397438;32;34872;-87
2023/07/29 05:54:55;;;;;;;;;;;;;;;27.82;46.70;99999.31;5386916;32;35000;-86
2023/07/29 05:57:57;;;;;;;;;;;;;;;28.21;45.84;100001.84;5384652;32;35185;-86
2023/07/29 06:00:59;;;;;;;;;;;;;;;28.67;44.50;99988.25;5388035;32;36509;-85
2023/07/29 06:04:01;;;;;;;;;;;;;;;28.89;43.90;99998.09;5390734;32;34563;-86
2023/07/29 06:07:04;;;;;;;;;;;;;;;29.90;41.33;100002.63;5385254;32;34727;-86
2023/07/29 06:10:06;;;;;;;;;;;;;;;30.13;40.44;100007.84;5388103;32;36687;-85
2023/07/29 06:13:08;;;;;;;;;;;;;;;29.62;41.63;100012.53;5392649;32;35948;-86
2023/07/29 06:16:10;;;;;;;;;;;;;;;29.23;42.14;100018.31;5381371;32;35409;-85
2023/07/29 06:19:13;;;;;;;;;;;;;;;28.90;43.07;100018.69;5392441;32;35682;-85
2023/07/29 06:22:15;;;;;;;;;;;;;;;28.08;44.36;100026.81;5382607;32;34888;-86
2023/07/29 06:25:17;;;;;;;;;;;;;;;28.15;44.45;100027.75;5386755;32;35267;-86
2023/07/29 06:28:19;;;;;;;;;;;;;;;29.79;40.42;100018.56;5386529;32;36360;-86
2023/07/29 06:31:21;;;;;;;;;;;;;;;29.59;39.62;100024.59;5386785;32;34568;-87
2023/07/29 06:34:23;;;;;;;;;;;;;;;31.03;37.48;100025.16;5390026;32;36746;-86
2023/07/29 06:37:27;;;;;;;;;;;;;;;31.61;35.51;100020.16;5384443;32;36238;-86
2023/07/29 06:40:29;;;;;;;;;;;;;;;33.07;32.40;100014.69;5389645;32;34403;-86
2023/07/29 06:43:31;;;;;;;;;;;;;;;32.99;32.26;100023.13;5386698;32;34954;-85
2023/07/29 06:46:33;;;;;;;;;;;;;;;33.30;31.74;100020.47;5391049;32;35202;-85
2023/07/29 06:49:35;;;;;;;;;;;;;;;33.90;30.29;100015.50;5388001;32;34442;-85
2023/07/29 06:52:38;;;;;;;;;;;;;;;31.87;33.80;100016.69;5389465;32;35631;-86
2023/07/29 06:55:40;;;;;;;;;;;;;;;32.27;33.13;100017.53;5386816;32;35139;-87
2023/07/29 06:58:42;;;;;;;;;;;;;;;33.06;31.83;100013.87;5384217;32;35025;-86
2023/07/29 07:01:44;;;;;;;;;;;;;;;33.75;30.91;100012.28;5384678;32;34996;-86
2023/07/29 07:04:46;;;;;;;;;;;;;;;33.79;30.75;100013.47;5381146;32;34910;-86
2023/07/29 07:07:48;;;;;;;;;;;;;;;33.16;31.81;100013.37;5388503;32;35571;-85
2023/07/29 07:10:50;;;;;;;;;;;;;;;33.29;31.77;100005.16;5387909;32;34833;-85
2023/07/29 07:13:52;;;;;;;;;;;;;;;32.62;32.72;100014.59;5382215;32;34315;-86
2023/07/29 07:16:54;;;;;;;;;;;;;;;33.86;31.35;99992.47;5385857;32;34952;-87
2023/07/29 07:19:56;;;;;;;;;;;;;;;35.54;28.97;99994.06;5385913;32;35087;-86
2023/07/29 07:22:58;;;;;;;;;;;;;;;34.88;29.64;99995.72;5385820;32;35059;-87
2023/07/29 07:26:00;;;;;;;;;;;;;;;34.57;30.52;100001.34;5386959;32;34400;-85
2023/07/29 07:29:02;;;;;;;;;;;;;;;35.58;28.25;99999.91;5398780;32;34418;-85
2023/07/29 07:32:04;;;;;;;;;;;;;;;35.14;29.17;100002.78;5378818;32;35137;-86
2023/07/29 07:35:06;;;;;;;;;;;;;;;34.62;30.10;100002.31;5378233;32;34454;-86
2023/07/29 07:38:09;;;;;;;;;;;;;;;34.31;30.85;99999.66;5388004;32;33181;-85
2023/07/29 07:41:11;;;;;;;;;;;;;;;34.85;29.63;99988.03;5385211;32;35332;-86
2023/07/29 07:44:15;;;;;;;;;;;;;;;33.51;32.29;99994.81;5393733;32;36935;-86
2023/07/29 07:47:17;;;;;;;;;;;;;;;34.62;30.01;99985.94;5387111;32;35378;-85
2023/07/29 07:50:19;;;;;;;;;;;;;;;32.95;32.42;99998.19;5390782;32;34991;-85
2023/07/29 07:53:21;;;;;;;;;;;;;;;33.41;32.68;99994.44;5376798;32;34915;-86
2023/07/29 07:56:23;;;;;;;;;;;;;;;31.27;36.96;99993.97;5384207;32;34980;-85
2023/07/29 07:59:27;;;;;;;;;;;;;;;32.82;34.22;99990.88;5395479;32;33958;-85
2023/07/29 08:02:30;;;;;;;;;;;;;;;32.16;34.95;99988.28;5389178;32;34243;-86
2023/07/29 08:05:32;;;;;;;;;;;;;;;33.37;33.50;99987.75;5403347;32;33473;-85
2023/07/29 08:08:34;;;;;;;;;;;;;;;34.99;30.52;99984.09;5376514;32;35614;-87
2023/07/29 08:11:36;;;;;;;;;;;;;;;34.83;30.76;99979.19;5375297;32;36774;-86
2023/07/29 08:14:38;;;;;;;;;;;;;;;33.20;33.42;99983.84;5387158;32;34851;-85
2023/07/29 08:17:40;;;;;;;;;;;;;;;34.19;32.18;99977.75;5386138;32;34481;-86
2023/07/29 08:20:51;;;;;;;;;;;;;;;35.93;29.06;99976.25;5393135;32;34977;-86
2023/07/29 08:23:53;;;;;;;;;;;;;;;34.00;31.76;99979.59;5390892;32;35094;-85
2023/07/29 08:26:55;;;;;;;;;;;;;;;34.38;31.54;99974.00;5391106;32;33939;-86
2023/07/29 08:29:57;;;;;;;;;;;;;;;37.37;27.21;99964.69;5387619;32;34171;-87
2023/07/29 08:32:59;;;;;;;;;;;;;;;36.95;27.01;99973.13;5387296;32;35044;-86
2023/07/29 08:36:01;;;;;;;;;;;;;;;34.58;29.76;99962.91;5385730;32;35767;-87
2023/07/29 08:39:03;;;;;;;;;;;;;;;34.19;30.82;99966.84;5390248;32;34819;-86
2023/07/29 08:42:08;;;;;;;;;;;;;;;35.66;28.92;99964.06;5393217;32;35096;-86
2023/07/29 08:45:11;;;;;;;;;;;;;;;36.16;27.59;99955.47;5369395;32;35892;-85
2023/07/29 08:48:15;;;;;;;;;;;;;;;36.55;26.90;99951.19;5391727;32;34683;-87
2023/07/29 08:51:17;;;;;;;;;;;;;;;34.95;29.28;99966.47;5387531;32;34572;-88
2023/07/29 08:54:19;;;;;;;;;;;;;;;36.96;25.97;99957.53;5390938;32;35618;-85
2023/07/29 08:57:21;;;;;;;;;;;;;;;35.79;27.83;99956.47;5391455;32;35606;-87
2023/07/29 09:00:23;;;;;;;;;;;;;;;38.20;24.50;99947.44;5390060;32;35707;-86
2023/07/29 09:03:25;;;;;;;;;;;;;;;39.32;23.16;99944.50;5393453;32;34982;-87
2023/07/29 09:06:28;;;;;;;;;;;;;;;36.10;27.33;99948.22;5389115;32;35460;-87
2023/07/29 09:09:30;;;;;;;;;;;;;;;37.78;24.59;99943.44;5394294;32;34315;-86
2023/07/29 09:12:32;;;;;;;;;;;;;;;38.34;24.04;99949.88;5386786;32;34618;-87
2023/07/29 09:15:34;;;;;;;;;;;;;;;36.06;26.48;99951.41;5389316;32;34497;-86
2023/07/29 09:18:36;;;;;;;;;;;;;;;37.19;25.55;99938.28;5392754;32;35463;-85
2023/07/29 09:21:40;;;;;;;;;;;;;;;36.48;25.36;99940.37;5387222;32;35407;-87
2023/07/29 09:24:42;;;;;;;;;;;;;;;35.17;26.44;99949.63;5391181;32;35122;-84
2023/07/29 09:27:44;;;;;;;;;;;;;;;37.36;23.38;99941.09;5385760;32;35490;-85
2023/07/29 09:30:50;;;;;;;;;;;;;;;39.01;21.23;99933.16;5388619;32;34982;-85
2023/07/29 09:33:59;;;;;;;;;;;;;;;37.77;22.50;99930.81;5382359;32;35676;-85
2023/07/29 09:37:04;;;;;;;;;;;;;;;38.02;21.93;99927.69;5386295;32;37423;-86
2023/07/29 09:40:06;;;;;;;;;;;;;;;36.76;23.65;99927.81;5390538;32;34443;-87
2023/07/29 09:43:09;;;;;;;;;;;;;;;36.75;22.91;99916.03;5376953;32;33949;-87
2023/07/29 09:46:11;;;;;;;;;;;;;;;36.41;23.53;99911.47;5379280;32;33082;-85
2023/07/29 09:49:13;;;;;;;;;;;;;;;35.94;24.07;99926.00;5389407;32;34964;-86
2023/07/29 09:52:16;;;;;;;;;;;;;;;33.52;27.40;99925.66;5393995;32;34943;-87
2023/07/29 09:55:19;;;;;;;;;;;;;;;34.73;26.28;99921.59;5391869;32;34497;-86
2023/07/29 09:58:27;;;;;;;;;;;;;;;34.61;26.35;99912.50;5381953;32;36279;-85
2023/07/29 10:01:29;;;;;;;;;;;;;;;35.92;24.58;99911.69;5392498;32;34387;-86
2023/07/29 10:04:31;;;;;;;;;;;;;;;36.12;24.34;99908.59;5390981;32;38828;-85
2023/07/29 10:07:37;;;;;;;;;;;;;;;37.18;22.96;99905.66;5398291;32;34565;-87
2023/07/29 10:10:39;;;;;;;;;;;;;;;37.02;22.76;99905.34;5374334;32;34817;-85
2023/07/29 10:13:41;;;;;;;;;;;;;;;37.23;22.59;99898.38;5393318;32;34315;-87
2023/07/29 10:16:50;;;;;;;;;;;;;;;37.94;21.50;99904.25;5389131;32;33023;-87
2023/07/29 10:19:53;;;;;;;;;;;;;;;37.55;22.18;99895.94;5387202;32;34795;-86
2023/07/29 10:22:55;;;;;;;;;;;;;;;40.17;19.52;99896.81;5391049;32;35163;-86
2023/07/29 10:26:08;;;;;;;;;;;;;;;37.73;22.29;99902.22;5384861;32;34770;-87
2023/07/29 10:29:10;;;;;;;;;;;;;;;38.31;21.85;99888.06;5393601;32;34700;-87
2023/07/29 10:32:12;;;;;;;;;;;;;;;38.91;20.88;99886.37;5373568;32;36505;-87
2023/07/29 10:35:14;;;;;;;;;;;;;;;39.57;20.21;99889.75;5385562;32;35607;-87
2023/07/29 10:38:16;;;;;;;;;;;;;;;36.49;23.12;99897.41;5389521;32;34827;-88
2023/07/29 10:41:18;;;;;;;;;;;;;;;37.40;22.18;99898.41;5387787;32;34589;-87
2023/07/29 10:44:39;;;;;;;;;;;;;;;36.58;23.41;99893.22;5390749;32;35406;-87
2023/07/29 10:47:41;;;;;;;;;;;;;;;37.07;23.11;99897.22;5385790;32;35441;-86
2023/07/29 10:50:43;;;;;;;;;;;;;;;34.28;26.60;99894.59;5389791;32;34913;-86
2023/07/29 10:53:45;;;;;;;;;;;;;;;35.34;25.35;99901.44;5388782;32;35607;-87
2023/07/29 10:56:47;;;;;;;;;;;;;;;34.09;26.74;99893.75;5361022;32;848456;-88
2023/07/29 10:59:55;;;;;;;;;;;;;;;33.63;27.88;99899.59;5389749;32;35002;-86
2023/07/29 11:03:02;;;;;;;;;;;;;;;34.42;26.80;99892.59;5386046;32;35606;-87
2023/07/29 11:06:04;;;;;;;;;;;;;;;34.05;27.32;99891.69;5389594;32;37098;-86
2023/07/29 11:09:26;;;;;;;;;;;;;;;34.44;27.20;99890.44;5384462;32;35359;-86
2023/07/29 11:12:37;;;;;;;;;;;;;;;34.71;26.71;99894.50;5389322;32;34442;-86
2023/07/29 11:15:39;;;;;;;;;;;;;;;34.57;26.23;99889.47;5390452;32;35174;-85
2023/07/29 11:18:41;;;;;;;;;;;;;;;34.14;27.04;99895.81;5385356;32;34326;-84
2023/07/29 11:21:43;;;;;;;;;;;;;;;34.07;27.63;99884.09;5390201;32;35491;-86
2023/07/29 11:24:47;;;;;;;;;;;;;;;34.69;26.70;99883.00;5385362;32;35170;-86
2023/07/29 11:27:51;;;;;;;;;;;;;;;34.99;26.68;99887.69;5390361;32;36234;-86
2023/07/29 11:30:56;;;;;;;;;;;;;;;35.80;25.78;99888.94;5383334;32;34784;-85
2023/07/29 11:33:58;;;;;;;;;;;;;;;35.73;26.20;99890.97;5381948;32;35443;-85
2023/07/29 11:37:00;;;;;;;;;;;;;;;37.03;24.12;99881.53;5386960;32;34645;-85
2023/07/29 11:40:02;;;;;;;;;;;;;;;33.71;28.33;99885.69;5388082;32;33905;-85
2023/07/29 11:43:04;;;;;;;;;;;;;;;35.41;26.17;99874.03;5390508;32;35073;-87
2023/07/29 11:46:07;;;;;;;;;;;;;;;35.68;26.01;99886.25;5383880;32;35574;-85
2023/07/29 11:49:09;;;;;;;;;;;;;;;35.88;25.88;99880.41;5389524;32;34243;-86
2023/07/29 11:52:12;;;;;;;;;;;;;;;37.38;23.95;99870.41;5386311;32;34859;-86
2023/07/29 11:55:14;;;;;;;;;;;;;;;38.18;23.11;99861.78;5384046;32;35377;-85
2023/07/29 11:58:16;;;;;;;;;;;;;;;35.29;26.57;99871.25;5390628;32;35060;-85
2023/07/29 12:01:18;;;;;;;;;;;;;;;35.63;26.23;99869.72;5386344;32;34919;-85
2023/07/29 12:04:20;;;;;;;;;;;;;;;36.88;24.56;99857.44;5388753;32;34172;-87
2023/07/29 12:07:22;;;;;;;;;;;;;;;36.49;25.06;99859.09;5396297;32;34921;-85
2023/07/29 12:10:25;;;;;;;;;;;;;;;36.15;25.42;99855.34;5390761;32;35453;-87
2023/07/29 12:13:27;;;;;;;;;;;;;;;39.27;20.52;99846.34;5387909;32;37102;-85
2023/07/29 12:16:34;;;;;;;;;;;;;;;40.68;18.56;99839.25;5389070;32;35596;-85
2023/07/29 12:19:37;;;;;;;;;;;;;;;40.90;18.10;99843.72;5393452;32;34378;-87
2023/07/29 12:22:40;;;;;;;;;;;;;;;38.15;20.59;99837.62;5387376;32;35678;-85
2023/07/29 12:25:41;;;;;;;;;;;;;;;37.00;22.67;99844.53;5391098;32;34534;-85
2023/07/29 12:28:47;;;;;;;;;;;;;;;37.30;22.77;99838.75;5390362;32;35938;-85
2023/07/29 12:31:50;;;;;;;;;;;;;;;37.67;22.16;99836.34;5390414;32;34756;-85
2023/07/29 12:34:53;;;;;;;;;;;;;;;35.35;24.48;99845.75;5400580;27;35214;-86
2023/07/29 12:37:58;;;;;;;;;;;;;;;34.36;25.87;99842.47;5442245;32;34703;-86
2023/07/29 12:41:00;;;;;;;;;;;;;;;34.50;24.99;99840.44;5448281;32;34923;-86
2023/07/29 12:44:02;;;;;;;;;;;;;;;34.79;24.33;99838.81;5441023;32;34640;-85
2023/07/29 12:47:05;;;;;;;;;;;;;;;33.92;25.21;99827.22;5462548;32;35313;-85
2023/07/29 12:50:07;;;;;;;;;;;;;;;32.57;27.36;99840.28;5452059;32;35749;-86
2023/07/29 12:53:12;;;;;;;;;;;;;;;32.22;27.91;99837.06;5444903;32;34922;-86
2023/07/29 12:56:15;;;;;;;;;;;;;;;32.71;27.44;99836.44;5464123;32;36640;-86
2023/07/29 12:59:16;;;;;;;;;;;;;;;32.45;28.43;99831.13;5459013;32;35800;-86
2023/07/29 13:02:19;;;;;;;;;;;;;;;32.32;28.25;99829.28;5449413;32;35021;-85
2023/07/29 13:05:23;;;;;;;;;;;;;;;32.38;27.87;99833.06;5445240;32;35631;-87
2023/07/29 13:08:25;;;;;;;;;;;;;;;32.54;26.91;99827.97;5461847;32;35093;-85
2023/07/29 13:11:28;;;;;;;;;;;;;;;31.80;28.30;99828.38;5457179;32;34160;-85
2023/07/29 13:14:30;;;;;;;;;;;;;;;32.51;28.04;99820.22;5457454;32;34832;-88
2023/07/29 13:17:32;;;;;;;;;;;;;;;33.10;27.22;99831.84;5459692;32;34600;-85
2023/07/29 13:20:37;;;;;;;;;;;;;;;32.44;28.30;99821.31;5454110;32;34852;-85
2023/07/29 13:23:39;;;;;;;;;;;;;;;33.25;27.72;99813.31;5451555;32;35271;-85
2023/07/29 13:26:42;;;;;;;;;;;;;;;32.61;28.68;99815.16;5455889;32;34325;-85
2023/07/29 13:29:44;;;;;;;;;;;;;;;33.35;27.88;99820.97;5449084;32;34889;-85
2023/07/29 13:32:46;;;;;;;;;;;;;;;33.44;27.73;99819.69;5430153;32;36186;-85
2023/07/29 13:35:48;;;;;;;;;;;;;;;33.74;27.53;99810.81;5444506;32;34567;-86
2023/07/29 13:38:50;;;;;;;;;;;;;;;34.63;26.11;99812.97;5464264;32;34846;-85
2023/07/29 13:41:52;;;;;;;;;;;;;;;33.75;27.34;99807.88;5445664;32;34814;-89
2023/07/29 13:44:54;;;;;;;;;;;;;;;32.79;28.97;99803.56;5448492;32;34819;-87
2023/07/29 13:47:56;;;;;;;;;;;;;;;32.70;29.00;99799.41;5447033;32;34952;-84
2023/07/29 13:50:58;;;;;;;;;;;;;;;32.94;28.77;99788.84;5462171;32;34859;-88
2023/07/29 13:54:00;;;;;;;;;;;;;;;33.28;28.08;99791.09;5444507;32;35070;-87
2023/07/29 13:57:02;;;;;;;;;;;;;;;33.13;27.93;99782.41;5445431;32;36077;-86
2023/07/29 14:00:05;;;;;;;;;;;;;;;33.67;27.45;99775.47;5450413;32;34923;-86
2023/07/29 14:03:07;;;;;;;;;;;;;;;33.76;27.24;99778.75;5445215;32;35380;-85
2023/07/29 14:06:09;;;;;;;;;;;;;;;33.18;28.02;99777.16;5450019;32;34963;-89
2023/07/29 14:09:11;;;;;;;;;;;;;;;32.50;28.69;99774.22;5458470;32;34437;-86
2023/07/29 14:12:15;;;;;;;;;;;;;;;32.93;27.91;99765.41;5447318;32;34777;-86
2023/07/29 14:15:17;;;;;;;;;;;;;;;32.66;28.38;99768.28;5445487;32;34664;-85
2023/07/29 14:18:19;;;;;;;;;;;;;;;32.79;28.17;99760.03;5445936;32;34850;-86
2023/07/29 14:21:21;;;;;;;;;;;;;;;33.05;27.66;99755.47;5448219;32;35347;-85
2023/07/29 14:24:23;;;;;;;;;;;;;;;32.98;27.71;99749.25;5461150;32;35148;-87
2023/07/29 14:27:25;;;;;;;;;;;;;;;32.97;27.48;99748.41;5449207;32;36050;-86
2023/07/29 14:30:27;;;;;;;;;;;;;;;33.53;26.72;99743.97;5445811;32;34610;-87
2023/07/29 14:33:29;;;;;;;;;;;;;;;33.66;26.79;99749.28;5456361;32;34826;-87
2023/07/29 14:36:31;;;;;;;;;;;;;;;32.90;27.95;99758.50;5446906;32;34849;-87
2023/07/29 14:39:33;;;;;;;;;;;;;;;32.48;28.28;99755.41;5445751;32;35619;-86
2023/07/29 14:42:35;;;;;;;;;;;;;;;32.59;28.10;99745.72;5461451;32;36336;-88
2023/07/29 14:45:37;;;;;;;;;;;;;;;32.60;28.53;99750.94;5448136;32;35408;-85
2023/07/29 14:48:39;;;;;;;;;;;;;;;32.15;29.09;99754.69;5461263;32;35831;-86
2023/07/29 14:51:42;;;;;;;;;;;;;;;32.07;29.45;99753.03;5443102;32;35877;-86
2023/07/29 14:54:43;;;;;;;;;;;;;;;32.18;29.21;99746.94;5458213;32;34921;-87
2023/07/29 14:57:45;;;;;;;;;;;;;;;32.69;28.71;99756.94;5448504;32;35405;-85
2023/07/29 15:00:47;;;;;;;;;;;;;;;31.93;29.91;99752.25;5444606;32;34734;-86
2023/07/29 15:03:49;;;;;;;;;;;;;;;31.67;30.40;99747.69;5452287;32;35749;-86
2023/07/29 15:06:52;;;;;;;;;;;;;;;31.77;30.47;99748.09;5456655;32;34495;-86
2023/07/29 15:09:54;;;;;;;;;;;;;;;32.42;29.78;99741.84;5450424;32;34688;-87
2023/07/29 15:12:56;;;;;;;;;;;;;;;32.98;28.92;99750.09;5443445;32;34531;-88
2023/07/29 15:15:58;;;;;;;;;;;;;;;32.56;29.68;99740.72;5444742;32;35087;-88
2023/07/29 15:19:00;;;;;;;;;;;;;;;32.11;30.51;99737.16;5459723;32;37461;-86
2023/07/29 15:22:04;;;;;;;;;;;;;;;32.29;30.44;99742.72;5445002;32;34720;-87
2023/07/29 15:25:08;;;;;;;;;;;;;;;31.81;31.19;99746.62;5448867;32;34905;-86
2023/07/29 15:28:10;;;;;;;;;;;;;;;31.76;31.49;99751.88;5456194;32;34612;-87
2023/07/29 15:31:15;;;;;;;;;;;;;;;32.90;29.60;99753.06;5446322;32;34863;-87
2023/07/29 15:34:17;;;;;;;;;;;;;;;32.45;30.44;99738.69;5453663;32;35580;-86
2023/07/29 15:37:19;;;;;;;;;;;;;;;33.18;29.23;99743.66;5455618;32;35115;-87
2023/07/29 15:40:21;;;;;;;;;;;;;;;32.66;30.13;99751.13;5461912;32;35017;-86
2023/07/29 15:43:23;;;;;;;;;;;;;;;32.50;30.34;99755.19;5446102;32;34419;-88
2023/07/29 15:46:25;;;;;;;;;;;;;;;31.82;30.88;99758.38;5451520;32;35454;-87
2023/07/29 15:49:27;;;;;;;;;;;;;;;31.51;31.48;99750.88;5449020;32;37051;-86